sensor_id;sensor_type;location;lat;lon;timestamp;pressure;altitude;pressure_sealevel;temperature;humidity
84524;BME280;74765;44.538;18.668;2024-03-08T00:01:31;99116.31;;;14.51;47.82
84524;BME280;74765;44.538;18.668;2024-03-08T00:03:57;99112.28;;;14.10;48.04
84524;BME280;74765;44.538;18.668;2024-03-08T00:06:23;99115.91;;;13.91;48.99
84524;BME280;74765;44.538;18.668;2024-03-08T00:08:50;99117.34;;;13.93;49.12
84524;BME280;74765;44.538;18.668;2024-03-08T00:11:16;99115.56;;;13.81;49.19
84524;BME280;74765;44.538;18.668;2024-03-08T00:13:42;99119.03;;;14.19;47.99
84524;BME280;74765;44.538;18.668;2024-03-08T00:16:07;99118.91;;;14.08;48.93
84524;BME280;74765;44.538;18.668;2024-03-08T00:18:35;99117.72;;;14.28;48.23
84524;BME280;74765;44.538;18.668;2024-03-08T00:21:00;99120.38;;;14.03;48.85
84524;BME280;74765;44.538;18.668;2024-03-08T00:23:26;99127.38;;;14.11;48.74
84524;BME280;74765;44.538;18.668;2024-03-08T00:25:53;99125.78;;;13.97;49.34
84524;BME280;74765;44.538;18.668;2024-03-08T00:28:21;99119.34;;;13.73;49.89
84524;BME280;74765;44.538;18.668;2024-03-08T00:30:47;99120.84;;;13.94;49.10
84524;BME280;74765;44.538;18.668;2024-03-08T00:33:12;99116.66;;;14.05;48.91
84524;BME280;74765;44.538;18.668;2024-03-08T00:35:38;99114.66;;;13.93;49.58
84524;BME280;74765;44.538;18.668;2024-03-08T00:38:04;99125.47;;;13.87;49.74
84524;BME280;74765;44.538;18.668;2024-03-08T00:40:30;99120.75;;;14.07;48.82
84524;BME280;74765;44.538;18.668;2024-03-08T00:42:56;99119.56;;;14.03;49.46
84524;BME280;74765;44.538;18.668;2024-03-08T00:45:22;99116.88;;;13.65;49.94
84524;BME280;74765;44.538;18.668;2024-03-08T00:47:48;99118.63;;;13.46;50.69
84524;BME280;74765;44.538;18.668;2024-03-08T00:50:14;99121.28;;;13.02;51.75
84524;BME280;74765;44.538;18.668;2024-03-08T00:52:40;99121.28;;;13.02;51.73
84524;BME280;74765;44.538;18.668;2024-03-08T00:55:06;99120.41;;;13.08;51.65
84524;BME280;74765;44.538;18.668;2024-03-08T00:57:36;99120.81;;;13.25;51.56
84524;BME280;74765;44.538;18.668;2024-03-08T01:00:03;99122.03;;;13.22;51.59
84524;BME280;74765;44.538;18.668;2024-03-08T01:02:32;99121.00;;;13.30;51.82
84524;BME280;74765;44.538;18.668;2024-03-08T01:05:00;99120.91;;;13.49;52.22
84524;BME280;74765;44.538;18.668;2024-03-08T01:07:26;99119.19;;;13.62;51.36
84524;BME280;74765;44.538;18.668;2024-03-08T01:09:51;99122.25;;;13.65;51.92
84524;BME280;74765;44.538;18.668;2024-03-08T01:12:17;99115.78;;;13.79;51.01
84524;BME280;74765;44.538;18.668;2024-03-08T01:14:43;99123.44;;;13.76;51.22
84524;BME280;74765;44.538;18.668;2024-03-08T01:17:08;99114.09;;;13.85;51.02
84524;BME280;74765;44.538;18.668;2024-03-08T01:19:35;99113.91;;;13.80;51.56
84524;BME280;74765;44.538;18.668;2024-03-08T01:22:01;99116.34;;;13.88;50.84
84524;BME280;74765;44.538;18.668;2024-03-08T01:24:28;99118.69;;;13.78;51.02
84524;BME280;74765;44.538;18.668;2024-03-08T01:26:53;99114.91;;;13.85;51.22
84524;BME280;74765;44.538;18.668;2024-03-08T01:29:19;99110.34;;;14.17;49.33
84524;BME280;74765;44.538;18.668;2024-03-08T01:31:45;99110.44;;;14.04;49.66
84524;BME280;74765;44.538;18.668;2024-03-08T01:34:11;99116.69;;;13.98;49.80
84524;BME280;74765;44.538;18.668;2024-03-08T01:36:37;99113.44;;;13.89;50.04
84524;BME280;74765;44.538;18.668;2024-03-08T01:39:06;99104.72;;;13.94;50.00
84524;BME280;74765;44.538;18.668;2024-03-08T01:41:34;99104.72;;;13.94;50.00
84524;BME280;74765;44.538;18.668;2024-03-08T01:44:01;99111.09;;;13.99;50.20
84524;BME280;74765;44.538;18.668;2024-03-08T01:46:28;99111.09;;;13.99;50.20
84524;BME280;74765;44.538;18.668;2024-03-08T01:48:54;99111.09;;;13.99;50.20
84524;BME280;74765;44.538;18.668;2024-03-08T01:51:21;99111.09;;;13.99;50.20
84524;BME280;74765;44.538;18.668;2024-03-08T01:53:47;99102.13;;;13.81;49.88
84524;BME280;74765;44.538;18.668;2024-03-08T01:56:13;99108.59;;;13.73;50.63
84524;BME280;74765;44.538;18.668;2024-03-08T01:58:41;99107.41;;;13.63;50.32
84524;BME280;74765;44.538;18.668;2024-03-08T02:01:10;99104.03;;;13.74;50.59
84524;BME280;74765;44.538;18.668;2024-03-08T02:03:36;99093.63;;;13.84;50.60
84524;BME280;74765;44.538;18.668;2024-03-08T02:06:02;99110.19;;;13.81;50.73
84524;BME280;74765;44.538;18.668;2024-03-08T02:08:30;99099.19;;;13.89;49.96
84524;BME280;74765;44.538;18.668;2024-03-08T02:10:57;99101.50;;;13.79;50.74
84524;BME280;74765;44.538;18.668;2024-03-08T02:13:22;99110.00;;;13.76;50.12
84524;BME280;74765;44.538;18.668;2024-03-08T02:15:59;99108.97;;;13.77;50.54
84524;BME280;74765;44.538;18.668;2024-03-08T02:18:26;99103.13;;;13.86;50.66
84524;BME280;74765;44.538;18.668;2024-03-08T02:20:56;99111.44;;;14.10;50.02
84524;BME280;74765;44.538;18.668;2024-03-08T02:23:23;99111.06;;;14.06;49.88
84524;BME280;74765;44.538;18.668;2024-03-08T02:25:51;99112.28;;;14.10;50.00
84524;BME280;74765;44.538;18.668;2024-03-08T02:28:17;99103.56;;;14.15;49.45
84524;BME280;74765;44.538;18.668;2024-03-08T02:30:49;99110.97;;;14.19;49.04
84524;BME280;74765;44.538;18.668;2024-03-08T02:33:17;99103.56;;;14.15;49.98
84524;BME280;74765;44.538;18.668;2024-03-08T02:35:47;99108.16;;;14.32;49.31
84524;BME280;74765;44.538;18.668;2024-03-08T02:38:14;99102.75;;;14.08;50.18
84524;BME280;74765;44.538;18.668;2024-03-08T02:40:45;99102.59;;;14.59;48.62
84524;BME280;74765;44.538;18.668;2024-03-08T02:43:12;99102.59;;;14.59;46.95
84524;BME280;74765;44.538;18.668;2024-03-08T02:45:38;99101.81;;;14.52;48.30
84524;BME280;74765;44.538;18.668;2024-03-08T02:48:05;99096.91;;;14.67;47.44
84524;BME280;74765;44.538;18.668;2024-03-08T02:50:33;99101.06;;;14.13;48.23
84524;BME280;74765;44.538;18.668;2024-03-08T02:53:01;99101.34;;;14.05;48.13
84524;BME280;74765;44.538;18.668;2024-03-08T02:55:26;99101.75;;;14.33;47.58
84524;BME280;74765;44.538;18.668;2024-03-08T02:57:52;99100.09;;;14.32;47.67
84524;BME280;74765;44.538;18.668;2024-03-08T03:00:20;99100.22;;;14.19;48.55
84524;BME280;74765;44.538;18.668;2024-03-08T03:02:47;99102.72;;;14.64;47.80
84524;BME280;74765;44.538;18.668;2024-03-08T03:05:13;99103.22;;;14.79;46.77
84524;BME280;74765;44.538;18.668;2024-03-08T03:07:39;99101.31;;;14.36;47.81
84524;BME280;74765;44.538;18.668;2024-03-08T03:10:05;99112.63;;;14.45;47.72
84524;BME280;74765;44.538;18.668;2024-03-08T03:12:32;99107.00;;;14.53;47.13
84524;BME280;74765;44.538;18.668;2024-03-08T03:14:59;99107.19;;;14.52;47.57
84524;BME280;74765;44.538;18.668;2024-03-08T03:17:26;99103.47;;;14.53;47.90
84524;BME280;74765;44.538;18.668;2024-03-08T03:19:52;99104.97;;;14.49;47.61
84524;BME280;74765;44.538;18.668;2024-03-08T03:22:19;99105.84;;;14.42;47.51
84524;BME280;74765;44.538;18.668;2024-03-08T03:24:45;99109.34;;;14.12;48.70
84524;BME280;74765;44.538;18.668;2024-03-08T03:27:15;99105.91;;;14.54;47.65
84524;BME280;74765;44.538;18.668;2024-03-08T03:29:43;99106.72;;;14.05;48.53
84524;BME280;74765;44.538;18.668;2024-03-08T03:32:13;99117.81;;;14.15;48.94
84524;BME280;74765;44.538;18.668;2024-03-08T03:34:39;99115.38;;;14.07;49.31
84524;BME280;74765;44.538;18.668;2024-03-08T03:37:06;99118.09;;;14.38;48.09
84524;BME280;74765;44.538;18.668;2024-03-08T03:39:38;99117.59;;;13.85;49.70
84524;BME280;74765;44.538;18.668;2024-03-08T03:42:17;99111.06;;;14.37;48.62
84524;BME280;74765;44.538;18.668;2024-03-08T03:44:46;99111.06;;;14.31;48.25
84524;BME280;74765;44.538;18.668;2024-03-08T03:47:13;99113.00;;;14.24;48.61
84524;BME280;74765;44.538;18.668;2024-03-08T03:49:40;99107.16;;;14.27;48.81
84524;BME280;74765;44.538;18.668;2024-03-08T03:52:06;99107.63;;;14.24;48.72
84524;BME280;74765;44.538;18.668;2024-03-08T03:54:32;99114.97;;;14.10;49.52
84524;BME280;74765;44.538;18.668;2024-03-08T03:56:59;99110.91;;;14.01;49.72
84524;BME280;74765;44.538;18.668;2024-03-08T03:59:26;99118.16;;;14.25;49.05
84524;BME280;74765;44.538;18.668;2024-03-08T04:01:55;99113.81;;;14.24;49.05
84524;BME280;74765;44.538;18.668;2024-03-08T04:04:21;99110.66;;;14.34;49.69
84524;BME280;74765;44.538;18.668;2024-03-08T04:06:47;99107.41;;;14.25;49.63
84524;BME280;74765;44.538;18.668;2024-03-08T04:09:13;99101.59;;;14.28;49.52
84524;BME280;74765;44.538;18.668;2024-03-08T04:11:39;99102.53;;;14.40;49.18
84524;BME280;74765;44.538;18.668;2024-03-08T04:14:05;99109.44;;;14.30;48.83
84524;BME280;74765;44.538;18.668;2024-03-08T04:16:32;99106.25;;;14.64;47.84
84524;BME280;74765;44.538;18.668;2024-03-08T04:18:58;99104.22;;;14.60;47.71
84524;BME280;74765;44.538;18.668;2024-03-08T04:21:24;99107.75;;;14.60;47.55
84524;BME280;74765;44.538;18.668;2024-03-08T04:23:50;99108.09;;;14.64;47.92
84524;BME280;74765;44.538;18.668;2024-03-08T04:26:15;99104.84;;;14.62;47.62
84524;BME280;74765;44.538;18.668;2024-03-08T04:28:41;99106.94;;;14.78;47.42
84524;BME280;74765;44.538;18.668;2024-03-08T04:31:07;99104.69;;;14.75;47.42
84524;BME280;74765;44.538;18.668;2024-03-08T04:33:33;99100.50;;;14.61;47.78
84524;BME280;74765;44.538;18.668;2024-03-08T04:36:01;99108.72;;;14.66;47.23
84524;BME280;74765;44.538;18.668;2024-03-08T04:38:30;99103.47;;;14.21;47.72
84524;BME280;74765;44.538;18.668;2024-03-08T04:40:57;99106.91;;;14.35;47.48
84524;BME280;74765;44.538;18.668;2024-03-08T04:43:23;99105.47;;;14.32;47.83
84524;BME280;74765;44.538;18.668;2024-03-08T04:45:52;99115.22;;;14.02;49.48
84524;BME280;74765;44.538;18.668;2024-03-08T04:48:19;99108.47;;;14.49;47.05
84524;BME280;74765;44.538;18.668;2024-03-08T04:50:46;99113.84;;;14.18;48.09
84524;BME280;74765;44.538;18.668;2024-03-08T04:53:11;99115.31;;;13.89;49.98
84524;BME280;74765;44.538;18.668;2024-03-08T04:55:37;99115.78;;;13.79;50.34
84524;BME280;74765;44.538;18.668;2024-03-08T04:58:03;99118.25;;;14.12;49.40
84524;BME280;74765;44.538;18.668;2024-03-08T05:00:32;99124.63;;;14.18;49.07
84524;BME280;74765;44.538;18.668;2024-03-08T05:02:58;99118.72;;;14.34;48.81
84524;BME280;74765;44.538;18.668;2024-03-08T05:05:24;99119.88;;;14.44;48.84
84524;BME280;74765;44.538;18.668;2024-03-08T05:07:51;99116.03;;;14.34;48.61
84524;BME280;74765;44.538;18.668;2024-03-08T05:10:17;99123.13;;;14.22;49.05
84524;BME280;74765;44.538;18.668;2024-03-08T05:12:44;99127.97;;;14.13;48.87
84524;BME280;74765;44.538;18.668;2024-03-08T05:15:09;99127.84;;;14.01;49.54
84524;BME280;74765;44.538;18.668;2024-03-08T05:17:35;99124.53;;;13.99;49.24
84524;BME280;74765;44.538;18.668;2024-03-08T05:20:01;99127.59;;;14.10;49.05
84524;BME280;74765;44.538;18.668;2024-03-08T05:22:27;99127.69;;;14.21;48.99
84524;BME280;74765;44.538;18.668;2024-03-08T05:24:53;99131.00;;;14.23;48.99
84524;BME280;74765;44.538;18.668;2024-03-08T05:27:19;99126.63;;;14.29;48.89
84524;BME280;74765;44.538;18.668;2024-03-08T05:29:45;99125.09;;;14.08;49.67
84524;BME280;74765;44.538;18.668;2024-03-08T05:32:11;99128.47;;;14.28;48.42
84524;BME280;74765;44.538;18.668;2024-03-08T05:34:37;99130.75;;;14.00;50.01
84524;BME280;74765;44.538;18.668;2024-03-08T05:37:04;99132.06;;;13.84;49.92
84524;BME280;74765;44.538;18.668;2024-03-08T05:39:29;99134.81;;;13.78;50.59
84524;BME280;74765;44.538;18.668;2024-03-08T05:41:55;99138.75;;;13.75;50.85
84524;BME280;74765;44.538;18.668;2024-03-08T05:44:21;99129.13;;;13.92;49.91
84524;BME280;74765;44.538;18.668;2024-03-08T05:46:47;99127.25;;;13.93;50.09
84524;BME280;74765;44.538;18.668;2024-03-08T05:49:13;99133.38;;;14.07;49.82
84524;BME280;74765;44.538;18.668;2024-03-08T05:51:40;99136.94;;;14.00;50.13
84524;BME280;74765;44.538;18.668;2024-03-08T05:54:12;99138.94;;;14.12;49.91
84524;BME280;74765;44.538;18.668;2024-03-08T05:56:39;99143.91;;;14.08;50.08
84524;BME280;74765;44.538;18.668;2024-03-08T05:59:09;99141.78;;;14.17;50.41
84524;BME280;74765;44.538;18.668;2024-03-08T06:01:35;99151.47;;;13.93;50.41
84524;BME280;74765;44.538;18.668;2024-03-08T06:04:03;99146.69;;;13.95;50.36
84524;BME280;74765;44.538;18.668;2024-03-08T06:06:29;99160.69;;;14.03;50.22
84524;BME280;74765;44.538;18.668;2024-03-08T06:08:55;99159.00;;;13.78;50.50
84524;BME280;74765;44.538;18.668;2024-03-08T06:11:25;99160.88;;;13.71;51.15
84524;BME280;74765;44.538;18.668;2024-03-08T06:13:56;99166.59;;;13.49;50.58
84524;BME280;74765;44.538;18.668;2024-03-08T06:16:27;99159.94;;;13.96;49.65
84524;BME280;74765;44.538;18.668;2024-03-08T06:18:56;99163.09;;;14.18;49.71
84524;BME280;74765;44.538;18.668;2024-03-08T06:21:25;99164.31;;;14.54;49.56
84524;BME280;74765;44.538;18.668;2024-03-08T06:24:03;99163.41;;;14.84;46.85
84524;BME280;74765;44.538;18.668;2024-03-08T06:26:29;99161.50;;;14.92;47.11
84524;BME280;74765;44.538;18.668;2024-03-08T06:28:55;99158.72;;;14.98;45.25
84524;BME280;74765;44.538;18.668;2024-03-08T06:31:21;99161.13;;;15.06;45.31
84524;BME280;74765;44.538;18.668;2024-03-08T06:33:47;99152.78;;;14.47;45.67
84524;BME280;74765;44.538;18.668;2024-03-08T06:36:18;99159.53;;;14.80;46.86
84524;BME280;74765;44.538;18.668;2024-03-08T06:38:50;99151.19;;;15.25;45.32
84524;BME280;74765;44.538;18.668;2024-03-08T06:41:16;99160.59;;;14.98;46.07
84524;BME280;74765;44.538;18.668;2024-03-08T06:43:43;99163.00;;;15.42;45.87
84524;BME280;74765;44.538;18.668;2024-03-08T06:46:09;99169.50;;;15.16;45.87
84524;BME280;74765;44.538;18.668;2024-03-08T06:48:35;99166.31;;;15.44;44.13
84524;BME280;74765;44.538;18.668;2024-03-08T06:51:02;99169.44;;;15.23;45.19
84524;BME280;74765;44.538;18.668;2024-03-08T06:53:28;99169.06;;;15.38;46.00
84524;BME280;74765;44.538;18.668;2024-03-08T06:55:54;99166.38;;;15.38;46.15
84524;BME280;74765;44.538;18.668;2024-03-08T06:58:20;99163.84;;;15.43;45.06
84524;BME280;74765;44.538;18.668;2024-03-08T07:00:46;99166.47;;;15.67;44.45
84524;BME280;74765;44.538;18.668;2024-03-08T07:03:15;99160.22;;;15.85;44.01
84524;BME280;74765;44.538;18.668;2024-03-08T07:05:43;99163.06;;;15.36;45.50
84524;BME280;74765;44.538;18.668;2024-03-08T07:08:09;99164.88;;;15.60;44.26
84524;BME280;74765;44.538;18.668;2024-03-08T07:10:35;99168.59;;;15.41;45.39
84524;BME280;74765;44.538;18.668;2024-03-08T07:13:02;99173.06;;;15.53;45.68
84524;BME280;74765;44.538;18.668;2024-03-08T07:15:28;99177.16;;;15.74;44.30
84524;BME280;74765;44.538;18.668;2024-03-08T07:17:56;99172.75;;;15.61;44.98
84524;BME280;74765;44.538;18.668;2024-03-08T07:20:26;99162.47;;;15.70;44.58
84524;BME280;74765;44.538;18.668;2024-03-08T07:23:37;99169.75;;;15.69;44.49
84524;BME280;74765;44.538;18.668;2024-03-08T07:26:22;99179.56;;;15.82;44.70
84524;BME280;74765;44.538;18.668;2024-03-08T07:28:48;99173.28;;;16.00;43.54
84524;BME280;74765;44.538;18.668;2024-03-08T07:31:17;99172.53;;;15.93;43.98
84524;BME280;74765;44.538;18.668;2024-03-08T07:34:09;99177.63;;;15.71;45.50
84524;BME280;74765;44.538;18.668;2024-03-08T07:36:35;99170.63;;;15.63;46.25
84524;BME280;74765;44.538;18.668;2024-03-08T07:39:01;99170.72;;;15.75;44.54
84524;BME280;74765;44.538;18.668;2024-03-08T07:41:27;99171.53;;;15.75;44.54
84524;BME280;74765;44.538;18.668;2024-03-08T07:43:55;99169.00;;;15.92;44.20
84524;BME280;74765;44.538;18.668;2024-03-08T07:46:21;99168.22;;;15.92;44.33
84524;BME280;74765;44.538;18.668;2024-03-08T07:48:47;99178.19;;;16.33;43.68
84524;BME280;74765;44.538;18.668;2024-03-08T07:51:16;99168.06;;;16.16;44.52
84524;BME280;74765;44.538;18.668;2024-03-08T07:53:43;99175.28;;;16.34;43.81
84524;BME280;74765;44.538;18.668;2024-03-08T07:56:09;99180.16;;;16.26;42.68
84524;BME280;74765;44.538;18.668;2024-03-08T07:58:41;99182.56;;;16.34;42.12
84524;BME280;74765;44.538;18.668;2024-03-08T08:01:07;99184.31;;;16.40;42.46
84524;BME280;74765;44.538;18.668;2024-03-08T08:03:33;99176.78;;;16.30;43.04
84524;BME280;74765;44.538;18.668;2024-03-08T08:06:21;99181.38;;;16.41;42.22
84524;BME280;74765;44.538;18.668;2024-03-08T08:08:47;99180.78;;;16.81;41.12
84524;BME280;74765;44.538;18.668;2024-03-08T08:11:13;99178.88;;;16.58;42.07
84524;BME280;74765;44.538;18.668;2024-03-08T08:13:41;99182.28;;;17.12;40.67
84524;BME280;74765;44.538;18.668;2024-03-08T08:16:09;99179.47;;;17.18;40.56
84524;BME280;74765;44.538;18.668;2024-03-08T08:18:36;99178.06;;;17.16;40.14
84524;BME280;74765;44.538;18.668;2024-03-08T08:21:02;99177.59;;;17.07;39.97
84524;BME280;74765;44.538;18.668;2024-03-08T08:23:31;99172.72;;;17.56;38.44
84524;BME280;74765;44.538;18.668;2024-03-08T08:26:03;99170.94;;;16.86;38.62
84524;BME280;74765;44.538;18.668;2024-03-08T08:28:49;99189.31;;;17.47;38.00
84524;BME280;74765;44.538;18.668;2024-03-08T08:31:15;99184.91;;;17.58;38.08
84524;BME280;74765;44.538;18.668;2024-03-08T08:33:41;99193.94;;;17.24;38.92
84524;BME280;74765;44.538;18.668;2024-03-08T08:36:07;99189.31;;;17.36;39.10
84524;BME280;74765;44.538;18.668;2024-03-08T08:38:51;99187.69;;;17.12;39.16
84524;BME280;74765;44.538;18.668;2024-03-08T08:41:20;99191.22;;;17.12;40.27
84524;BME280;74765;44.538;18.668;2024-03-08T08:43:49;99190.41;;;17.12;39.57
84524;BME280;74765;44.538;18.668;2024-03-08T08:46:21;99185.84;;;17.00;38.37
84524;BME280;74765;44.538;18.668;2024-03-08T08:48:56;99183.72;;;16.91;38.85
84524;BME280;74765;44.538;18.668;2024-03-08T08:51:22;99188.75;;;17.22;39.34
84524;BME280;74765;44.538;18.668;2024-03-08T08:53:53;99186.88;;;16.99;38.40
84524;BME280;74765;44.538;18.668;2024-03-08T08:56:21;99188.28;;;17.02;39.79
84524;BME280;74765;44.538;18.668;2024-03-08T08:58:55;99185.47;;;17.09;39.57
84524;BME280;74765;44.538;18.668;2024-03-08T09:01:26;99184.13;;;17.58;38.78
84524;BME280;74765;44.538;18.668;2024-03-08T09:04:01;99178.63;;;17.41;38.95
84524;BME280;74765;44.538;18.668;2024-03-08T09:06:27;99178.19;;;17.84;36.88
84524;BME280;74765;44.538;18.668;2024-03-08T09:08:55;99186.06;;;18.14;36.24
84524;BME280;74765;44.538;18.668;2024-03-08T09:11:47;99177.41;;;18.45;35.50
84524;BME280;74765;44.538;18.668;2024-03-08T09:14:36;99178.75;;;18.43;35.02
84524;BME280;74765;44.538;18.668;2024-03-08T09:17:18;99170.41;;;18.16;35.83
84524;BME280;74765;44.538;18.668;2024-03-08T09:19:49;99178.88;;;18.19;35.83
84524;BME280;74765;44.538;18.668;2024-03-08T09:22:36;99182.41;;;18.20;36.62
84524;BME280;74765;44.538;18.668;2024-03-08T09:25:03;99173.50;;;18.08;37.05
84524;BME280;74765;44.538;18.668;2024-03-08T09:27:31;99183.47;;;17.90;36.99
84524;BME280;74765;44.538;18.668;2024-03-08T09:30:00;99174.63;;;18.40;36.51
84524;BME280;74765;44.538;18.668;2024-03-08T09:32:29;99173.59;;;18.74;35.23
84524;BME280;74765;44.538;18.668;2024-03-08T09:34:59;99174.63;;;18.40;35.50
84524;BME280;74765;44.538;18.668;2024-03-08T09:37:31;99170.56;;;19.04;34.74
84524;BME280;74765;44.538;18.668;2024-03-08T09:39:57;99172.84;;;19.34;34.04
84524;BME280;74765;44.538;18.668;2024-03-08T09:42:30;99177.53;;;18.05;36.11
84524;BME280;74765;44.538;18.668;2024-03-08T09:45:01;99173.44;;;18.81;35.00
84524;BME280;74765;44.538;18.668;2024-03-08T09:47:28;99170.88;;;19.08;33.54
84524;BME280;74765;44.538;18.668;2024-03-08T09:50:15;99165.69;;;18.40;35.44
84524;BME280;74765;44.538;18.668;2024-03-08T09:52:48;99175.31;;;18.64;36.76
84524;BME280;74765;44.538;18.668;2024-03-08T09:55:16;99174.66;;;20.69;31.96
84524;BME280;74765;44.538;18.668;2024-03-08T09:57:44;99162.75;;;20.75;31.30
84524;BME280;74765;44.538;18.668;2024-03-08T10:00:36;99170.13;;;21.17;30.36
84524;BME280;74765;44.538;18.668;2024-03-08T10:03:06;99169.44;;;20.31;32.56
84524;BME280;74765;44.538;18.668;2024-03-08T10:05:36;99166.47;;;22.15;29.81
84524;BME280;74765;44.538;18.668;2024-03-08T10:08:02;99162.59;;;21.34;30.43
